Terminal Aerodrome Forecast
Issued by NWS

Home | Current Version | Previous Version | Text Only | Print | Product List | Glossary On
Versions: 1 2 3 4 5 6 7 8 9 10 11 12 13 14 15 16 17
603
FTUS46 KSEW 151750
TAFBLI
TAF
KBLI 151750Z 1518/1618 18006KT 5SM -RA BR BKN022 OVC035
      TEMPO 1518/1522 3SM -RA BR OVC015
     FM160000 21005KT P6SM VCSH BKN025 BKN040
     FM160700 26006KT P6SM BKN025
     FM160900 VRB03KT P6SM OVC020=

USA.gov is the U.S. government's official web portal to all federal, state and local government web resources and services.